Time;durP1;ratioP1;P1;durP2;ratioP2;P2;SDS_P1;SDS_P2;PMS_P1;PMS_P2;Temp;Humidity;BMP_temperature;BMP_pressure;BME280_temperature;BME280_humidity;BME280_pressure;Samples;Min_cycle;Max_cycle;Signal;HPM_P1;HPM_P2
2021/12/24 00:01:45;;;;;;;98.82;45.55;;;;;;;;;;5095911;28;20070;-74
2021/12/24 00:04:12;;;;;;;85.57;41.67;;;;;;;;;;5095996;28;20429;-73
2021/12/24 00:06:39;;;;;;;63.75;32.70;;;;;;;;;;5095966;28;20024;-73
2021/12/24 00:09:06;;;;;;;48.60;25.10;;;;;;;;;;5095696;28;20035;-73
2021/12/24 00:11:33;;;;;;;35.08;19.25;;;;;;;;;;5096007;28;20465;-73
2021/12/24 00:14:01;;;;;;;36.05;16.92;;;;;;;;;;5095579;28;20019;-73
2021/12/24 00:16:38;;;;;;;49.78;22.77;;;;;;;;;;5095566;28;20085;-73
2021/12/24 00:37:55;;;;;;;40.08;21.67;;;;;;;;;;5095060;28;20151;-74
2021/12/24 00:40:21;;;;;;;65.75;33.38;;;;;;;;;;5095116;28;20027;-73
2021/12/24 00:42:52;;;;;;;56.95;27.65;;;;;;;;;;5094994;28;20097;-73
2021/12/24 00:45:19;;;;;;;63.63;29.40;;;;;;;;;;5095423;28;20020;-73
2021/12/24 00:47:46;;;;;;;44.75;21.60;;;;;;;;;;5095356;28;20028;-73
2021/12/24 00:50:18;;;;;;;41.85;20.50;;;;;;;;;;5095102;28;20042;-73
2021/12/24 00:52:49;;;;;;;38.17;18.92;;;;;;;;;;5095464;28;20051;-73
2021/12/24 00:55:19;;;;;;;43.67;20.92;;;;;;;;;;5095275;28;20052;-73
2021/12/24 00:57:48;;;;;;;51.47;24.98;;;;;;;;;;5094719;28;20028;-73
2021/12/24 01:00:19;;;;;;;53.75;23.40;;;;;;;;;;5095049;28;20445;-73
2021/12/24 01:02:46;;;;;;;47.60;22.40;;;;;;;;;;5094903;28;20036;-73
2021/12/24 01:05:13;;;;;;;38.58;18.60;;;;;;;;;;5094568;28;20524;-74
2021/12/24 01:07:39;;;;;;;35.83;16.00;;;;;;;;;;5094885;28;20036;-73
2021/12/24 01:10:07;;;;;;;24.60;12.85;;;;;;;;;;5094860;28;20020;-73
2021/12/24 01:12:34;;;;;;;23.73;13.10;;;;;;;;;;5094426;28;20020;-73
2021/12/24 01:15:00;;;;;;;26.45;11.43;;;;;;;;;;5094771;28;20032;-73
2021/12/24 01:17:39;;;;;;;23.20;12.88;;;;;;;;;;5094785;28;20027;-73
2021/12/24 01:20:15;;;;;;;31.52;13.43;;;;;;;;;;5094304;28;20054;-73
2021/12/24 01:23:17;;;;;;;30.00;15.43;;;;;;;;;;5094550;28;20035;-73
2021/12/24 01:25:39;;;;;;;29.80;14.90;;;;;;;;;;5093168;28;20028;-73
2021/12/24 01:28:31;;;;;;;33.20;16.67;;;;;;;;;;5094585;28;20024;-73
2021/12/24 01:39:14;;;;;;;30.85;15.82;;;;;;;;;;5094526;28;20023;-73
2021/12/24 01:44:28;;;;;;;39.40;17.17;;;;;;;;;;5094500;28;20031;-73
2021/12/24 01:46:59;;;;;;;33.35;15.23;;;;;;;;;;5093798;28;20574;-73
2021/12/24 01:49:25;;;;;;;23.20;12.80;;;;;;;;;;5094114;28;20023;-73
2021/12/24 01:51:52;;;;;;;32.28;14.77;;;;;;;;;;5094255;28;20035;-73
2021/12/24 01:54:19;;;;;;;30.67;16.10;;;;;;;;;;5093749;28;20074;-72
2021/12/24 01:56:45;;;;;;;26.67;14.93;;;;;;;;;;5093930;28;20103;-72
2021/12/24 01:59:12;;;;;;;25.13;12.52;;;;;;;;;;5092717;28;20476;-73
2021/12/24 02:01:39;;;;;;;20.27;11.00;;;;;;;;;;5093426;28;20035;-73
2021/12/24 02:04:05;;;;;;;21.25;10.95;;;;;;;;;;5093948;28;20045;-73
2021/12/24 02:06:31;;;;;;;29.27;12.73;;;;;;;;;;5093828;28;20088;-74
2021/12/24 02:08:58;;;;;;;21.70;11.45;;;;;;;;;;5093547;28;20111;-74
2021/12/24 02:11:24;;;;;;;24.27;11.63;;;;;;;;;;5093781;28;20054;-73
2021/12/24 02:13:52;;;;;;;22.65;11.70;;;;;;;;;;5093704;28;20027;-73
2021/12/24 02:16:37;;;;;;;23.27;11.38;;;;;;;;;;5093277;28;20032;-73
2021/12/24 02:30:04;;;;;;;35.30;17.65;;;;;;;;;;5093431;28;20039;-73
2021/12/24 02:32:30;;;;;;;35.15;18.65;;;;;;;;;;5093394;28;20502;-72
2021/12/24 02:34:56;;;;;;;33.25;18.50;;;;;;;;;;5093678;28;20024;-72
2021/12/24 02:37:23;;;;;;;52.45;22.10;;;;;;;;;;5092866;28;20077;-72
2021/12/24 02:39:49;;;;;;;45.92;22.15;;;;;;;;;;5093414;28;20026;-72
2021/12/24 02:42:20;;;;;;;45.33;20.60;;;;;;;;;;5093170;28;20055;-72
2021/12/24 02:44:47;;;;;;;45.67;21.73;;;;;;;;;;5093389;28;20021;-72
2021/12/24 02:55:01;;;;;;;30.67;13.30;;;;;;;;;;5093231;28;20078;-72
2021/12/24 02:57:28;;;;;;;27.27;14.80;;;;;;;;;;5092908;28;20029;-73
2021/12/24 03:00:00;;;;;;;26.83;14.50;;;;;;;;;;5093183;28;20020;-72
2021/12/24 03:02:28;;;;;;;27.38;14.93;;;;;;;;;;5093380;28;20115;-72
2021/12/24 03:04:54;;;;;;;25.63;13.73;;;;;;;;;;5092779;28;20039;-72
2021/12/24 03:07:20;;;;;;;29.85;14.13;;;;;;;;;;5093136;28;20024;-73
2021/12/24 03:09:46;;;;;;;28.13;14.27;;;;;;;;;;5093420;28;20024;-72
2021/12/24 03:12:13;;;;;;;21.65;12.13;;;;;;;;;;5092640;28;20028;-72
2021/12/24 03:14:39;;;;;;;24.70;13.02;;;;;;;;;;5093120;28;20036;-72
2021/12/24 03:17:10;;;;;;;28.23;13.90;;;;;;;;;;5093012;28;20086;-72
2021/12/24 03:19:37;;;;;;;23.80;13.15;;;;;;;;;;5092559;28;20056;-72
2021/12/24 03:24:48;;;;;;;33.33;16.73;;;;;;;;;;5092660;28;20566;-72
2021/12/24 03:27:15;;;;;;;24.13;14.98;;;;;;;;;;5092919;28;20028;-72
2021/12/24 03:29:41;;;;;;;34.47;17.98;;;;;;;;;;5092874;28;20027;-72
2021/12/24 03:32:08;;;;;;;60.25;29.98;;;;;;;;;;5092521;28;20467;-72
2021/12/24 03:34:34;;;;;;;58.05;25.58;;;;;;;;;;5092842;28;20024;-72
2021/12/24 03:37:01;;;;;;;41.85;21.27;;;;;;;;;;5092990;28;20029;-72
2021/12/24 03:39:28;;;;;;;35.55;17.90;;;;;;;;;;5092466;28;20031;-72
2021/12/24 03:41:54;;;;;;;33.30;19.13;;;;;;;;;;5092572;28;20052;-72
2021/12/24 03:44:21;;;;;;;41.33;21.20;;;;;;;;;;5092812;28;20388;-72
2021/12/24 03:47:02;;;;;;;27.65;15.27;;;;;;;;;;5092356;28;20016;-72
2021/12/24 03:54:57;;;;;;;31.88;14.68;;;;;;;;;;5095980;28;20050;-72
2021/12/24 03:57:24;;;;;;;38.15;16.08;;;;;;;;;;5096509;28;20020;-72
2021/12/24 03:59:51;;;;;;;46.53;21.08;;;;;;;;;;5095871;28;20017;-72
2021/12/24 04:02:17;;;;;;;34.13;16.40;;;;;;;;;;5096067;28;20032;-72
2021/12/24 04:04:43;;;;;;;36.17;17.83;;;;;;;;;;5096186;28;20028;-72
2021/12/24 04:07:09;;;;;;;37.03;16.15;;;;;;;;;;5095694;28;20028;-72
2021/12/24 04:09:37;;;;;;;31.35;14.13;;;;;;;;;;5096234;28;20016;-72
2021/12/24 04:12:05;;;;;;;29.95;13.65;;;;;;;;;;5096255;28;20107;-72
2021/12/24 04:14:31;;;;;;;28.48;12.95;;;;;;;;;;5095498;28;20495;-72
2021/12/24 04:16:57;;;;;;;29.95;13.50;;;;;;;;;;5095948;28;20103;-72
2021/12/24 04:24:53;;;;;;;44.17;20.20;;;;;;;;;;5095792;28;20051;-72
2021/12/24 04:27:21;;;;;;;37.75;18.15;;;;;;;;;;5095919;28;20392;-72
2021/12/24 04:29:47;;;;;;;45.70;22.55;;;;;;;;;;5095272;28;20024;-72
2021/12/24 04:32:19;;;;;;;51.83;24.90;;;;;;;;;;5095621;28;20044;-73
2021/12/24 04:34:49;;;;;;;53.45;24.77;;;;;;;;;;5095640;28;20019;-73
2021/12/24 04:39:55;;;;;;;31.20;16.42;;;;;;;;;;5095420;28;20048;-70
2021/12/24 05:01:14;;;;;;;44.78;21.75;;;;;;;;;;5095138;28;20031;-71
2021/12/24 05:01:47;;;;;;;40.47;20.20;;;;;;;;;;5094952;28;20058;-72
2021/12/24 05:04:14;;;;;;;36.60;18.33;;;;;;;;;;5094732;28;20099;-72
2021/12/24 05:06:51;;;;;;;42.53;22.13;;;;;;;;;;5095083;28;20020;-72
2021/12/24 05:09:23;;;;;;;44.25;21.45;;;;;;;;;;5095146;28;20070;-71
2021/12/24 05:11:49;;;;;;;53.33;27.30;;;;;;;;;;5094686;28;20059;-72
2021/12/24 05:14:15;;;;;;;50.17;26.10;;;;;;;;;;5094786;28;20020;-72
2021/12/24 05:16:49;;;;;;;57.20;26.13;;;;;;;;;;5094714;28;20020;-72
2021/12/24 05:21:52;;;;;;;48.65;23.45;;;;;;;;;;5095115;28;20036;-71
2021/12/24 05:24:20;;;;;;;44.28;21.67;;;;;;;;;;5094202;28;20099;-71
2021/12/24 05:26:57;;;;;;;56.45;26.15;;;;;;;;;;5094797;28;20034;-70
2021/12/24 05:29:24;;;;;;;50.72;26.83;;;;;;;;;;5094529;28;20444;-70
2021/12/24 05:31:50;;;;;;;54.42;26.90;;;;;;;;;;5094001;28;20031;-70
2021/12/24 05:34:18;;;;;;;49.95;22.67;;;;;;;;;;5094485;28;20024;-70
2021/12/24 05:36:44;;;;;;;39.75;21.23;;;;;;;;;;5094554;28;20461;-70
2021/12/24 05:39:10;;;;;;;39.30;20.23;;;;;;;;;;5093904;28;20024;-70
2021/12/24 05:41:37;;;;;;;43.97;22.80;;;;;;;;;;5094033;28;20048;-70
2021/12/24 05:44:04;;;;;;;36.55;20.25;;;;;;;;;;5094283;28;20094;-70
2021/12/24 05:46:31;;;;;;;50.70;24.10;;;;;;;;;;5093882;28;20028;-70
2021/12/24 05:48:57;;;;;;;47.35;23.50;;;;;;;;;;5092807;28;20016;-70
2021/12/24 05:51:23;;;;;;;52.45;23.77;;;;;;;;;;5094233;28;20421;-69
2021/12/24 05:53:49;;;;;;;47.20;23.38;;;;;;;;;;5093568;28;20035;-70
2021/12/24 05:56:16;;;;;;;38.88;22.20;;;;;;;;;;5094007;28;20380;-69
2021/12/24 05:58:42;;;;;;;48.75;25.63;;;;;;;;;;5094041;28;20057;-69
2021/12/24 06:01:08;;;;;;;43.58;20.13;;;;;;;;;;5093277;28;20040;-69
2021/12/24 06:03:34;;;;;;;49.63;23.42;;;;;;;;;;5094333;28;20345;-73
2021/12/24 06:06:00;;;;;;;48.53;23.58;;;;;;;;;;5087888;28;20537;-72
2021/12/24 06:08:27;;;;;;;62.50;31.08;;;;;;;;;;5093290;28;20024;-71
2021/12/24 06:10:53;;;;;;;66.65;33.05;;;;;;;;;;5093274;28;20055;-73
2021/12/24 06:13:19;;;;;;;69.15;38.45;;;;;;;;;;5093208;28;20027;-72
2021/12/24 06:15:47;;;;;;;79.38;40.15;;;;;;;;;;5092672;28;20194;-72
2021/12/24 06:18:25;;;;;;;77.90;38.85;;;;;;;;;;5093660;28;20379;-73
2021/12/24 06:20:52;;;;;;;76.82;36.22;;;;;;;;;;5093163;28;20020;-74
2021/12/24 06:23:20;;;;;;;73.68;36.33;;;;;;;;;;5093526;28;20020;-75
2021/12/24 06:25:47;;;;;;;81.72;41.20;;;;;;;;;;5090559;28;20072;-74
2021/12/24 06:28:15;;;;;;;80.43;40.40;;;;;;;;;;5088113;28;20099;-73
2021/12/24 06:30:42;;;;;;;82.85;41.25;;;;;;;;;;5071389;28;20016;-72
2021/12/24 06:33:08;;;;;;;61.28;34.53;;;;;;;;;;5070660;28;20091;-71
2021/12/24 06:35:35;;;;;;;68.75;35.90;;;;;;;;;;5072423;28;20027;-73
2021/12/24 06:38:01;;;;;;;54.00;29.67;;;;;;;;;;5082872;28;20059;-71
2021/12/24 06:40:28;;;;;;;36.45;17.42;;;;;;;;;;5081857;28;20040;-74
2021/12/24 06:42:54;;;;;;;30.63;16.33;;;;;;;;;;5091615;28;20032;-75
2021/12/24 06:45:24;;;;;;;37.33;21.00;;;;;;;;;;5092039;28;20028;-75
2021/12/24 06:47:53;;;;;;;45.75;25.75;;;;;;;;;;5092876;28;20384;-75
2021/12/24 06:50:19;;;;;;;54.85;29.65;;;;;;;;;;5092090;28;20484;-76
2021/12/24 06:52:46;;;;;;;90.30;42.75;;;;;;;;;;5092475;28;20103;-73
2021/12/24 06:55:12;;;;;;;49.92;29.60;;;;;;;;;;5092195;28;20099;-73
2021/12/24 06:57:40;;;;;;;49.80;23.13;;;;;;;;;;5092221;28;20028;-72
2021/12/24 07:00:06;;;;;;;51.63;27.77;;;;;;;;;;5092934;28;20024;-74
2021/12/24 07:02:32;;;;;;;55.35;27.48;;;;;;;;;;5091476;28;20028;-75
2021/12/24 07:04:59;;;;;;;37.00;19.13;;;;;;;;;;5092370;28;20093;-76
2021/12/24 07:07:25;;;;;;;39.38;19.20;;;;;;;;;;5092836;28;20069;-74
2021/12/24 07:09:51;;;;;;;33.88;18.38;;;;;;;;;;5091928;28;20107;-74
2021/12/24 07:12:18;;;;;;;50.88;24.55;;;;;;;;;;5092470;28;20032;-74
2021/12/24 07:14:44;;;;;;;40.42;22.05;;;;;;;;;;5091389;28;20020;-75
2021/12/24 07:17:10;;;;;;;40.30;21.00;;;;;;;;;;5085082;28;20084;-74
2021/12/24 07:19:37;;;;;;;39.33;22.20;;;;;;;;;;5089561;28;20061;-77
2021/12/24 07:22:03;;;;;;;36.42;18.92;;;;;;;;;;5090865;28;20135;-74
2021/12/24 07:24:29;;;;;;;44.30;22.33;;;;;;;;;;5094297;28;20020;-74
2021/12/24 07:26:56;;;;;;;56.53;24.42;;;;;;;;;;5095870;28;20046;-76
2021/12/24 07:29:22;;;;;;;57.92;31.73;;;;;;;;;;5095564;28;20498;-76
2021/12/24 07:31:48;;;;;;;57.40;31.38;;;;;;;;;;5095132;28;20039;-72
2021/12/24 07:34:14;;;;;;;45.78;25.17;;;;;;;;;;5096382;28;20027;-74
2021/12/24 07:36:40;;;;;;;55.67;29.48;;;;;;;;;;5096529;28;20487;-72
2021/12/24 07:39:07;;;;;;;56.97;32.00;;;;;;;;;;5094737;28;20016;-74
2021/12/24 07:41:33;;;;;;;67.72;34.83;;;;;;;;;;5095795;28;20047;-74
2021/12/24 07:44:01;;;;;;;66.30;31.90;;;;;;;;;;5094116;28;20035;-72
2021/12/24 07:46:35;;;;;;;55.55;28.58;;;;;;;;;;5095221;28;20454;-72
2021/12/24 07:49:12;;;;;;;44.17;26.02;;;;;;;;;;5094017;28;20119;-73
2021/12/24 07:54:23;;;;;;;60.25;29.65;;;;;;;;;;5096435;28;20039;-73
2021/12/24 07:56:50;;;;;;;52.13;29.52;;;;;;;;;;5094870;28;20039;-71
2021/12/24 07:59:16;;;;;;;63.08;33.70;;;;;;;;;;5094723;28;20035;-73
2021/12/24 08:01:46;;;;;;;76.20;41.55;;;;;;;;;;5095369;28;20443;-71
2021/12/24 08:04:13;;;;;;;74.47;44.83;;;;;;;;;;5094742;28;20024;-70
2021/12/24 08:06:39;;;;;;;63.45;35.85;;;;;;;;;;5095105;28;20476;-72
2021/12/24 08:09:07;;;;;;;63.50;32.50;;;;;;;;;;5095779;28;20024;-69
2021/12/24 08:11:37;;;;;;;80.90;46.88;;;;;;;;;;5095752;28;20021;-71
2021/12/24 08:14:04;;;;;;;42.63;22.02;;;;;;;;;;5093879;28;20470;-73
2021/12/24 08:16:31;;;;;;;42.05;25.48;;;;;;;;;;5094739;28;20472;-72
2021/12/24 08:18:58;;;;;;;42.97;24.70;;;;;;;;;;5095340;28;20024;-67
2021/12/24 08:21:24;;;;;;;69.35;44.22;;;;;;;;;;5094602;28;20032;-71
2021/12/24 08:23:51;;;;;;;45.38;27.30;;;;;;;;;;5095348;28;20436;-71
2021/12/24 08:26:18;;;;;;;43.53;25.70;;;;;;;;;;5093517;28;20593;-72
2021/12/24 08:28:44;;;;;;;42.05;23.88;;;;;;;;;;5092695;28;20052;-70
2021/12/24 08:31:11;;;;;;;39.08;21.75;;;;;;;;;;5095327;28;20016;-71
2021/12/24 08:33:37;;;;;;;42.80;24.50;;;;;;;;;;5095050;28;20031;-69
2021/12/24 08:36:04;;;;;;;38.22;22.95;;;;;;;;;;5092626;28;20024;-73
2021/12/24 08:38:31;;;;;;;43.03;24.65;;;;;;;;;;5075285;28;20412;-70
2021/12/24 08:40:57;;;;;;;40.15;23.88;;;;;;;;;;5072447;28;20048;-71
2021/12/24 08:43:23;;;;;;;97.10;54.90;;;;;;;;;;5076899;28;20440;-71
2021/12/24 08:45:49;;;;;;;57.67;34.17;;;;;;;;;;5090530;28;20061;-71
2021/12/24 08:48:16;;;;;;;52.97;28.73;;;;;;;;;;5092927;28;20770;-72
2021/12/24 08:50:42;;;;;;;41.40;24.80;;;;;;;;;;5093297;28;20016;-73
2021/12/24 08:53:09;;;;;;;35.25;20.70;;;;;;;;;;5092218;28;20025;-70
2021/12/24 08:55:36;;;;;;;34.78;20.75;;;;;;;;;;5104285;28;20019;-70
2021/12/24 08:58:02;;;;;;;49.08;25.33;;;;;;;;;;5105733;28;20028;-71
2021/12/24 09:00:32;;;;;;;47.38;29.35;;;;;;;;;;5092868;28;20358;-71
2021/12/24 09:02:58;;;;;;;57.65;33.72;;;;;;;;;;5092519;28;20040;-73
2021/12/24 09:05:24;;;;;;;57.42;32.95;;;;;;;;;;5092878;28;20073;-72
2021/12/24 09:07:51;;;;;;;53.42;32.53;;;;;;;;;;5093307;28;20380;-70
2021/12/24 09:10:17;;;;;;;67.82;38.78;;;;;;;;;;5093191;28;20095;-73
2021/12/24 09:12:43;;;;;;;59.58;32.38;;;;;;;;;;5094648;28;20024;-73
2021/12/24 09:15:11;;;;;;;60.95;35.88;;;;;;;;;;5093900;28;20099;-74
2021/12/24 09:17:38;;;;;;;66.20;36.05;;;;;;;;;;5093188;28;20525;-78
2021/12/24 09:20:05;;;;;;;60.22;32.65;;;;;;;;;;5093450;28;20102;-74
2021/12/24 09:22:34;;;;;;;74.18;36.90;;;;;;;;;;5083352;28;20036;-72
2021/12/24 09:25:01;;;;;;;63.78;36.92;;;;;;;;;;5091095;28;20032;-75
2021/12/24 09:27:27;;;;;;;56.42;33.65;;;;;;;;;;5093218;28;20024;-74
2021/12/24 09:29:53;;;;;;;60.72;36.17;;;;;;;;;;5092721;28;20016;-77
2021/12/24 09:32:20;;;;;;;49.45;29.17;;;;;;;;;;5093433;28;20096;-73
2021/12/24 09:34:46;;;;;;;60.95;38.22;;;;;;;;;;5093584;28;20024;-74
2021/12/24 09:37:12;;;;;;;59.45;36.40;;;;;;;;;;5081986;28;20127;-75
2021/12/24 09:39:38;;;;;;;59.50;34.40;;;;;;;;;;5089552;28;20099;-77
2021/12/24 09:42:09;;;;;;;67.10;41.05;;;;;;;;;;5091108;28;20420;-76
2021/12/24 09:44:36;;;;;;;65.25;40.05;;;;;;;;;;5082104;28;20020;-74
2021/12/24 09:47:02;;;;;;;53.83;32.53;;;;;;;;;;5092822;28;20060;-75
2021/12/24 09:49:29;;;;;;;62.58;37.35;;;;;;;;;;5092468;28;20034;-75
2021/12/24 09:51:55;;;;;;;47.72;31.50;;;;;;;;;;5090963;28;20472;-71
2021/12/24 09:54:22;;;;;;;43.78;28.33;;;;;;;;;;5083072;28;20469;-72
2021/12/24 09:56:49;;;;;;;33.45;18.85;;;;;;;;;;5073327;28;20028;-70
2021/12/24 09:59:16;;;;;;;21.02;13.70;;;;;;;;;;5071156;28;20029;-73
2021/12/24 10:01:44;;;;;;;21.15;13.60;;;;;;;;;;5071802;28;20082;-71
2021/12/24 10:04:11;;;;;;;22.27;13.75;;;;;;;;;;5074350;28;20077;-74
2021/12/24 10:06:41;;;;;;;25.08;14.23;;;;;;;;;;5090609;28;20024;-70
2021/12/24 10:09:09;;;;;;;36.80;22.05;;;;;;;;;;5090837;28;20016;-70
2021/12/24 10:11:46;;;;;;;39.90;22.75;;;;;;;;;;5090555;28;20024;-70
2021/12/24 10:14:13;;;;;;;34.10;20.45;;;;;;;;;;5085552;28;20023;-70
2021/12/24 10:16:44;;;;;;;23.98;15.07;;;;;;;;;;5090848;28;20051;-69
2021/12/24 10:19:10;;;;;;;26.60;17.65;;;;;;;;;;5092840;28;20028;-71
2021/12/24 10:21:36;;;;;;;37.00;21.13;;;;;;;;;;5090806;28;20038;-71
2021/12/24 10:24:04;;;;;;;33.70;19.98;;;;;;;;;;5091201;28;20451;-70
2021/12/24 10:26:35;;;;;;;30.48;20.92;;;;;;;;;;5077727;28;20488;-69
2021/12/24 10:29:03;;;;;;;34.80;22.58;;;;;;;;;;5091338;28;20074;-75
2021/12/24 10:31:31;;;;;;;44.15;25.30;;;;;;;;;;5092344;28;20016;-71
2021/12/24 10:34:05;;;;;;;48.15;25.13;;;;;;;;;;5091537;28;20020;-70
2021/12/24 10:36:31;;;;;;;32.13;17.77;;;;;;;;;;5088183;28;20032;-73
2021/12/24 10:38:58;;;;;;;28.05;16.40;;;;;;;;;;5081686;28;20035;-70
2021/12/24 10:41:25;;;;;;;21.30;10.80;;;;;;;;;;5089947;28;20044;-68
2021/12/24 10:43:55;;;;;;;16.80;9.50;;;;;;;;;;5090362;28;20047;-69
2021/12/24 10:46:25;;;;;;;14.57;9.18;;;;;;;;;;5090510;28;20043;-67
2021/12/24 10:49:02;;;;;;;18.58;10.43;;;;;;;;;;5088476;28;20154;-71
2021/12/24 10:52:13;;;;;;;18.67;9.48;;;;;;;;;;5092031;28;20027;-70
2021/12/24 10:54:19;;;;;;;23.33;10.48;;;;;;;;;;5085472;28;20032;-70
2021/12/24 10:56:45;;;;;;;22.38;14.88;;;;;;;;;;5090646;28;20107;-71
2021/12/24 10:59:12;;;;;;;29.95;19.33;;;;;;;;;;5095397;28;20028;-70
2021/12/24 11:01:38;;;;;;;35.80;24.25;;;;;;;;;;5094741;28;20067;-71
2021/12/24 11:04:05;;;;;;;130.38;60.95;;;;;;;;;;5094340;28;20059;-73
2021/12/24 11:06:32;;;;;;;32.97;19.27;;;;;;;;;;5095042;28;20024;-73
2021/12/24 11:08:59;;;;;;;17.35;10.20;;;;;;;;;;5095740;28;20058;-72
2021/12/24 11:11:26;;;;;;;21.63;13.77;;;;;;;;;;5096240;28;20101;-72
2021/12/24 11:13:53;;;;;;;18.08;11.57;;;;;;;;;;5095865;28;20506;-71
2021/12/24 11:16:21;;;;;;;19.27;11.70;;;;;;;;;;5096119;28;20480;-71
2021/12/24 11:18:57;;;;;;;19.55;13.40;;;;;;;;;;5095328;28;20028;-75
2021/12/24 11:21:24;;;;;;;18.60;10.85;;;;;;;;;;5096607;28;20063;-73
2021/12/24 11:23:52;;;;;;;19.90;11.40;;;;;;;;;;5095531;28;20016;-71
2021/12/24 11:26:19;;;;;;;23.88;13.13;;;;;;;;;;5096301;28;20039;-71
2021/12/24 11:28:45;;;;;;;30.35;18.98;;;;;;;;;;5096816;28;20028;-71
2021/12/24 11:31:14;;;;;;;14.65;7.32;;;;;;;;;;5096180;28;20028;-73
2021/12/24 11:33:42;;;;;;;10.57;5.22;;;;;;;;;;5096663;28;20484;-74
2021/12/24 11:36:09;;;;;;;13.00;6.07;;;;;;;;;;5095024;28;20027;-74
2021/12/24 11:40:05;;;;;;;16.95;7.72;;;;;;;;;;5108151;27;20397;-73
2021/12/24 11:45:35;;;;;;;28.77;13.27;;;;;;;;;;5164248;27;20323;-74
2021/12/24 11:48:02;;;;;;;17.35;9.75;;;;;;;;;;5139477;27;20467;-72
2021/12/24 11:50:54;;;;;;;13.90;8.02;;;;;;;;;;5108915;27;20392;-75
2021/12/24 11:56:23;;;;;;;32.83;20.02;;;;;;;;;;5065635;28;20395;-74
2021/12/24 12:07:18;;;;;;;18.48;11.50;;;;;;;;;;5107904;27;20943;-72
2021/12/24 12:09:45;;;;;;;17.50;10.63;;;;;;;;;;5108684;28;20439;-69
2021/12/24 12:12:41;;;;;;;10.15;6.43;;;;;;;;;;5108788;27;20121;-71
2021/12/24 12:15:26;;;;;;;17.92;10.95;;;;;;;;;;5109410;28;20035;-70
2021/12/24 12:17:54;;;;;;;16.60;9.02;;;;;;;;;;5109552;28;20024;-73
2021/12/24 12:20:41;;;;;;;31.00;18.23;;;;;;;;;;5109662;28;20027;-70
2021/12/24 12:27:54;;;;;;;30.02;19.38;;;;;;;;;;5109911;27;20517;-70
2021/12/24 12:31:00;;;;;;;18.95;12.80;;;;;;;;;;5110590;28;20446;-70
2021/12/24 12:35:19;;;;;;;33.85;19.30;;;;;;;;;;5110203;27;20748;-70
2021/12/24 12:37:45;;;;;;;24.85;16.48;;;;;;;;;;5109717;28;20028;-71
2021/12/24 12:40:14;;;;;;;34.90;19.38;;;;;;;;;;5110115;28;20388;-70
2021/12/24 12:43:08;;;;;;;27.50;17.63;;;;;;;;;;5110004;28;20462;-69
2021/12/24 12:47:21;;;;;;;18.88;12.80;;;;;;;;;;5110573;27;20389;-70
2021/12/24 12:49:47;;;;;;;18.00;11.07;;;;;;;;;;5110329;28;20058;-68
2021/12/24 12:52:35;;;;;;;21.85;13.05;;;;;;;;;;5110068;27;20306;-68
2021/12/24 12:56:30;;;;;;;16.10;10.43;;;;;;;;;;5110382;27;20389;-69
2021/12/24 13:00:17;;;;;;;18.08;10.18;;;;;;;;;;5109263;27;20405;-71
2021/12/24 13:03:01;;;;;;;13.82;7.53;;;;;;;;;;5103878;28;20023;-73
2021/12/24 13:07:23;;;;;;;18.67;11.32;;;;;;;;;;5130670;27;20127;-71
2021/12/24 13:09:49;;;;;;;22.60;13.60;;;;;;;;;;5110089;28;20031;-69
2021/12/24 13:13:21;;;;;;;19.52;10.60;;;;;;;;;;5110106;27;20396;-74
2021/12/24 13:16:39;;;;;;;19.33;11.18;;;;;;;;;;5110426;27;20392;-73
2021/12/24 13:22:29;;;;;;;32.03;18.40;;;;;;;;;;5109844;28;20028;-71
2021/12/24 13:28:26;;;;;;;28.33;16.55;;;;;;;;;;5067782;28;20392;-72
2021/12/24 13:32:04;;;;;;;17.98;9.50;;;;;;;;;;5069470;28;20395;-72
2021/12/24 13:34:31;;;;;;;14.55;8.02;;;;;;;;;;5069364;28;20017;-71
2021/12/24 13:38:35;;;;;;;22.00;11.80;;;;;;;;;;5109648;27;20396;-72
2021/12/24 13:41:04;;;;;;;18.70;9.88;;;;;;;;;;5109847;28;20034;-71
2021/12/24 13:43:42;;;;;;;20.88;11.95;;;;;;;;;;5110636;27;20389;-73
2021/12/24 13:48:56;;;;;;;12.65;6.90;;;;;;;;;;5111139;27;20418;-73
2021/12/24 13:55:47;;;;;;;34.88;19.85;;;;;;;;;;5110964;27;20116;-73
2021/12/24 13:58:15;;;;;;;24.05;15.70;;;;;;;;;;5090233;28;20536;-78
2021/12/24 14:02:18;;;;;;;23.98;14.85;;;;;;;;;;5111395;27;20880;-78
2021/12/24 14:04:44;;;;;;;26.92;16.45;;;;;;;;;;5110775;28;20032;-78
2021/12/24 14:07:10;;;;;;;45.60;27.27;;;;;;;;;;5111192;28;20027;-78
2021/12/24 14:09:36;;;;;;;40.33;24.27;;;;;;;;;;5109633;28;20019;-78
2021/12/24 14:12:06;;;;;;;31.35;20.77;;;;;;;;;;5110052;28;20027;-78
2021/12/24 14:16:32;;;;;;;31.85;19.52;;;;;;;;;;5109652;27;20450;-77
2021/12/24 14:19:17;;;;;;;31.67;17.73;;;;;;;;;;5110722;28;20034;-78
2021/12/24 14:22:44;;;;;;;21.67;13.43;;;;;;;;;;5111512;27;20486;-76
2021/12/24 14:25:14;;;;;;;17.77;10.23;;;;;;;;;;5111028;28;20028;-77
2021/12/24 14:27:45;;;;;;;20.58;13.38;;;;;;;;;;5110697;28;20077;-76
2021/12/24 14:32:14;;;;;;;18.58;13.02;;;;;;;;;;5111700;27;20765;-79
2021/12/24 14:36:30;;;;;;;40.30;24.55;;;;;;;;;;5091660;27;20499;-79
2021/12/24 14:39:14;;;;;;;56.67;37.72;;;;;;;;;;5090734;28;20179;-77
2021/12/24 14:41:40;;;;;;;52.50;32.75;;;;;;;;;;5090464;28;20051;-76
2021/12/24 14:44:07;;;;;;;48.08;30.45;;;;;;;;;;5090753;28;20074;-78
2021/12/24 14:48:46;;;;;;;114.70;69.05;;;;;;;;;;5110665;27;20393;-78
2021/12/24 14:51:12;;;;;;;249.35;164.82;;;;;;;;;;5111248;28;20468;-79
2021/12/24 14:53:39;;;;;;;227.60;160.32;;;;;;;;;;5111995;28;20034;-79
2021/12/24 14:57:06;;;;;;;162.25;100.10;;;;;;;;;;5111203;27;20851;-78
2021/12/24 15:00:06;;;;;;;143.05;86.28;;;;;;;;;;5111176;27;20393;-78
2021/12/24 15:03:30;;;;;;;92.28;51.25;;;;;;;;;;5131749;27;20111;-78
2021/12/24 15:05:56;;;;;;;81.05;45.40;;;;;;;;;;5111071;28;20024;-78
2021/12/24 15:08:24;;;;;;;53.47;33.80;;;;;;;;;;5110814;28;20032;-78
2021/12/24 15:10:59;;;;;;;51.40;30.63;;;;;;;;;;5111048;28;20376;-79
2021/12/24 15:13:27;;;;;;;68.95;42.03;;;;;;;;;;5092732;28;20024;-77
2021/12/24 15:15:54;;;;;;;73.90;47.88;;;;;;;;;;5110558;28;20022;-78
2021/12/24 15:18:20;;;;;;;66.90;41.53;;;;;;;;;;5111022;28;20024;-78
2021/12/24 15:20:47;;;;;;;89.38;46.97;;;;;;;;;;5110766;28;20023;-77
2021/12/24 15:23:14;;;;;;;144.73;81.20;;;;;;;;;;5110306;28;20036;-79
2021/12/24 15:25:44;;;;;;;155.32;83.50;;;;;;;;;;5110845;28;20540;-78
2021/12/24 15:28:12;;;;;;;132.80;76.70;;;;;;;;;;5110691;28;20049;-79
2021/12/24 15:30:39;;;;;;;139.10;78.28;;;;;;;;;;5110247;28;20016;-78
2021/12/24 15:33:06;;;;;;;180.85;103.13;;;;;;;;;;5110712;28;20020;-78
2021/12/24 15:35:32;;;;;;;133.40;78.03;;;;;;;;;;5110651;28;20032;-78
2021/12/24 15:38:02;;;;;;;121.97;76.22;;;;;;;;;;5110093;28;20099;-79
2021/12/24 15:40:28;;;;;;;116.53;69.78;;;;;;;;;;5110540;28;20130;-77
2021/12/24 15:42:55;;;;;;;174.75;94.53;;;;;;;;;;5110355;28;20059;-77
2021/12/24 15:45:24;;;;;;;168.02;97.53;;;;;;;;;;5110016;28;20091;-77
2021/12/24 15:47:50;;;;;;;152.27;86.95;;;;;;;;;;5110333;28;20107;-78
2021/12/24 15:50:16;;;;;;;160.98;90.50;;;;;;;;;;5091666;28;20024;-78
2021/12/24 15:52:42;;;;;;;140.60;81.72;;;;;;;;;;5110594;28;20024;-79
2021/12/24 15:55:09;;;;;;;126.57;75.90;;;;;;;;;;5110181;28;20047;-78
2021/12/24 15:57:35;;;;;;;144.23;81.90;;;;;;;;;;5109948;28;20036;-76
2021/12/24 16:00:01;;;;;;;171.10;91.90;;;;;;;;;;5110410;28;20430;-77
2021/12/24 16:02:29;;;;;;;161.90;86.65;;;;;;;;;;5097679;28;20044;-78
2021/12/24 16:04:55;;;;;;;149.80;90.03;;;;;;;;;;5089378;28;20024;-77
2021/12/24 16:07:21;;;;;;;166.65;93.57;;;;;;;;;;5089572;28;20412;-77
2021/12/24 16:09:48;;;;;;;156.40;86.28;;;;;;;;;;5089519;28;20108;-77
2021/12/24 16:12:14;;;;;;;141.52;73.25;;;;;;;;;;5089243;28;20578;-77
2021/12/24 16:14:43;;;;;;;124.60;66.03;;;;;;;;;;5076283;28;20054;-76
2021/12/24 16:17:09;;;;;;;149.88;71.78;;;;;;;;;;5076114;28;20021;-77
2021/12/24 16:19:35;;;;;;;144.10;68.65;;;;;;;;;;5057472;28;20024;-76
2021/12/24 16:22:01;;;;;;;112.97;55.78;;;;;;;;;;5075771;28;20028;-79
2021/12/24 16:24:28;;;;;;;118.53;56.70;;;;;;;;;;5075784;28;20048;-78
2021/12/24 16:26:54;;;;;;;153.50;80.88;;;;;;;;;;5075439;28;20028;-77
2021/12/24 16:29:22;;;;;;;150.77;77.88;;;;;;;;;;5076234;28;20654;-78
2021/12/24 16:31:49;;;;;;;159.52;84.22;;;;;;;;;;5057748;28;20467;-78
2021/12/24 16:34:18;;;;;;;213.23;117.13;;;;;;;;;;5075260;28;20058;-78
2021/12/24 16:36:44;;;;;;;236.07;128.90;;;;;;;;;;5075896;28;20401;-78
2021/12/24 16:39:11;;;;;;;202.93;114.90;;;;;;;;;;5057600;28;20358;-78
2021/12/24 16:41:42;;;;;;;214.75;106.68;;;;;;;;;;5075075;28;20033;-78
2021/12/24 16:44:08;;;;;;;220.45;120.00;;;;;;;;;;5075735;28;20507;-78
2021/12/24 16:46:34;;;;;;;202.77;111.63;;;;;;;;;;5075080;28;20098;-78
2021/12/24 16:49:01;;;;;;;224.05;122.93;;;;;;;;;;5075345;28;20100;-78
2021/12/24 16:51:27;;;;;;;237.95;123.07;;;;;;;;;;5075343;28;20029;-78